Time;durP1;ratioP1;P1;durP2;ratioP2;P2;SDS_P1;SDS_P2;PMS_P1;PMS_P2;Temp;Humidity;BMP_temperature;BMP_pressure;BME280_temperature;BME280_humidity;BME280_pressure;Samples;Min_cycle;Max_cycle;Signal;HPM_P1;HPM_P2
2022/06/15 00:00:33;;;;;;;;;5.00;5.00;;;;;26.81;41.51;101287.59;5050068;28;45709;-77
2022/06/15 00:02:59;;;;;;;;;5.00;5.00;;;;;26.81;41.24;101277.53;5051937;28;45508;-78
2022/06/15 00:05:24;;;;;;;;;6.67;5.33;;;;;26.79;41.61;101273.28;5048028;28;45619;-78
2022/06/15 00:07:50;;;;;;;;;6.00;6.00;;;;;26.77;41.10;101276.19;5048786;28;46190;-78
2022/06/15 00:10:15;;;;;;;;;5.00;5.00;;;;;26.80;41.04;101278.56;5052450;28;45482;-78
2022/06/15 00:12:41;;;;;;;;;5.00;5.00;;;;;26.80;40.98;101269.53;5047910;28;45395;-78
2022/06/15 00:15:08;;;;;;;;;6.33;6.33;;;;;26.80;41.52;101273.13;5050251;28;45746;-78
2022/06/15 00:17:33;;;;;;;;;6.00;6.00;;;;;26.80;40.97;101275.84;5049302;28;46321;-77
2022/06/15 00:19:59;;;;;;;;;4.67;4.67;;;;;26.81;40.99;101273.97;5051110;28;45398;-77
2022/06/15 00:22:24;;;;;;;;;5.00;5.00;;;;;26.78;41.42;101271.59;5050385;28;47428;-78
2022/06/15 00:24:49;;;;;;;;;5.67;5.67;;;;;26.79;41.17;101276.88;5053886;28;45718;-77
2022/06/15 00:27:15;;;;;;;;;5.33;5.33;;;;;26.77;41.20;101268.00;5047621;28;50536;-77
2022/06/15 00:29:40;;;;;;;;;5.33;5.33;;;;;26.76;41.27;101269.03;5056007;28;45738;-77
2022/06/15 00:32:06;;;;;;;;;5.33;4.00;;;;;26.78;41.65;101272.47;5052591;28;45778;-77
2022/06/15 00:34:32;;;;;;;;;4.33;4.33;;;;;26.77;40.94;101268.00;5049570;28;45764;-77
2022/06/15 00:36:57;;;;;;;;;5.67;5.67;;;;;26.77;40.97;101278.06;5054279;28;45729;-77
2022/06/15 00:39:23;;;;;;;;;6.33;6.33;;;;;26.77;41.07;101284.34;5049281;28;45439;-77
2022/06/15 00:41:48;;;;;;;;;7.00;6.00;;;;;26.75;41.34;101267.34;5052651;28;45627;-77
2022/06/15 00:44:19;;;;;;;;;6.00;6.00;;;;;26.76;41.42;101279.09;5047864;28;59230;-77
2022/06/15 00:46:48;;;;;;;;;6.00;6.00;;;;;26.76;40.98;101279.09;5047746;28;45517;-77
2022/06/15 00:49:20;;;;;;;;;5.00;5.00;;;;;26.75;41.65;101283.69;5046682;28;45577;-77
2022/06/15 00:51:48;;;;;;;;;6.67;6.00;;;;;26.74;41.08;101282.00;5047959;28;45521;-77
2022/06/15 00:54:14;;;;;;;;;4.33;4.33;;;;;26.73;41.09;101280.28;5049825;28;45493;-77
2022/06/15 00:56:40;;;;;;;;;7.67;6.33;;;;;26.75;40.94;101280.09;5051399;28;45729;-77
2022/06/15 00:59:22;;;;;;;;;6.00;6.00;;;;;26.76;40.93;101281.81;5059926;28;45312;-75
2022/06/15 01:01:48;;;;;;;;;5.33;5.00;;;;;26.75;41.33;101282.81;5050833;28;45498;-77
2022/06/15 01:04:14;;;;;;;;;5.67;5.33;;;;;26.74;40.91;101283.88;5050262;28;45478;-77
2022/06/15 01:06:51;;;;;;;;;2.00;2.00;;;;;26.73;41.13;101283.00;5042613;28;46230;-77
2022/06/15 01:09:22;;;;;;;;;5.00;5.00;;;;;26.74;41.47;101284.72;5051584;28;45416;-77
2022/06/15 01:11:50;;;;;;;;;5.00;5.00;;;;;26.72;40.95;101281.31;5051315;28;45573;-76
2022/06/15 01:14:37;;;;;;;;;5.00;5.00;;;;;26.74;41.42;101286.59;5053231;28;45360;-77
2022/06/15 01:17:03;;;;;;;;;6.00;6.00;;;;;26.74;41.39;101287.44;5047167;28;45422;-77
2022/06/15 01:20:15;;;;;;;;;4.33;4.33;;;;;26.75;41.15;101282.81;5046090;28;45650;-77
2022/06/15 01:23:11;;;;;;;;;5.00;4.00;;;;;26.74;41.22;101282.00;5039573;28;45504;-77
2022/06/15 01:25:44;;;;;;;;;5.00;5.00;;;;;26.73;41.02;101279.44;5049015;28;45281;-77
2022/06/15 01:28:31;;;;;;;;;4.33;4.33;;;;;26.73;41.45;101280.28;5045591;28;46174;-77
2022/06/15 01:31:12;;;;;;;;;5.00;5.00;;;;;26.72;41.06;101284.03;5055418;28;45404;-77
2022/06/15 01:33:42;;;;;;;;;5.00;5.00;;;;;26.72;41.46;101278.59;5048897;28;45529;-77
2022/06/15 01:36:19;;;;;;;;;5.67;5.67;;;;;26.70;41.59;101276.03;5045992;28;45370;-77
2022/06/15 01:38:45;;;;;;;;;6.00;6.00;;;;;26.72;40.97;101285.94;5050669;28;45580;-77
2022/06/15 01:41:22;;;;;;;;;6.00;6.00;;;;;26.71;41.08;101279.63;5053053;28;45483;-77
2022/06/15 01:44:01;;;;;;;;;6.00;6.00;;;;;26.71;41.64;101279.63;5047095;28;45409;-76
2022/06/15 01:46:27;;;;;;;;;5.00;5.00;;;;;26.69;41.45;101268.91;5053306;28;45425;-77
2022/06/15 01:48:55;;;;;;;;;6.00;6.00;;;;;26.70;41.44;101267.88;5049833;28;45385;-77
2022/06/15 01:51:24;;;;;;;;;6.67;6.67;;;;;26.71;41.64;101266.00;5053822;28;45432;-77
2022/06/15 01:53:57;;;;;;;;;8.67;6.33;;;;;26.72;41.00;101258.69;5063388;28;45562;-76
2022/06/15 01:56:40;;;;;;;;;5.67;5.67;;;;;26.72;41.56;101258.69;5055696;28;52426;-77
2022/06/15 01:59:35;;;;;;;;;6.00;6.00;;;;;26.71;41.63;101257.84;5051471;28;46738;-77
2022/06/15 02:02:10;;;;;;;;;4.67;4.67;;;;;26.72;41.07;101255.97;5054781;28;45529;-77
2022/06/15 02:05:03;;;;;;;;;6.00;4.67;;;;;26.68;41.43;101248.16;5054448;28;45604;-77
2022/06/15 02:07:28;;;;;;;;;7.00;6.67;;;;;26.68;41.03;101242.72;5050711;28;45515;-76
2022/06/15 02:10:02;;;;;;;;;7.00;7.00;;;;;26.70;41.26;101245.25;5050703;28;48461;-77
2022/06/15 02:12:41;;;;;;;;;7.00;7.00;;;;;26.70;40.88;101240.66;5055981;28;45525;-77
2022/06/15 02:15:11;;;;;;;;;6.00;6.00;;;;;26.69;41.49;101233.50;5051323;28;45591;-77
2022/06/15 02:17:42;;;;;;;;;6.00;6.00;;;;;26.70;41.40;101243.38;5052161;28;45712;-77
2022/06/15 02:20:14;;;;;;;;;7.00;7.00;;;;;26.70;41.38;101239.81;5049984;28;46151;-77
2022/06/15 02:22:40;;;;;;;;;5.00;5.00;;;;;26.69;41.11;101236.22;5048568;28;45567;-77
2022/06/15 02:25:12;;;;;;;;;6.33;6.00;;;;;26.70;41.58;101240.66;5051630;28;48851;-77
2022/06/15 02:27:41;;;;;;;;;9.00;9.00;;;;;26.70;41.26;101237.09;5054858;28;46510;-77
2022/06/15 02:30:13;;;;;;;;;5.33;5.33;;;;;26.72;41.50;101237.75;5050998;28;46154;-77
2022/06/15 02:32:42;;;;;;;;;7.00;7.00;;;;;26.68;41.82;101230.97;5033389;28;45955;-76
2022/06/15 02:35:08;;;;;;;;;5.00;5.00;;;;;26.70;41.43;101239.81;5055335;28;45499;-77
2022/06/15 02:37:33;;;;;;;;;7.00;7.00;;;;;26.67;41.10;101238.28;5048045;28;45612;-76
2022/06/15 02:39:58;;;;;;;;;6.67;6.67;;;;;26.66;41.53;101236.59;5053185;28;45916;-77
2022/06/15 02:42:26;;;;;;;;;6.00;6.00;;;;;26.67;41.46;101241.03;5053118;28;46774;-77
2022/06/15 02:44:54;;;;;;;;;6.00;6.00;;;;;26.68;41.73;101239.97;5048646;28;45746;-77
2022/06/15 02:47:22;;;;;;;;;7.00;7.00;;;;;26.69;41.49;101236.22;5049759;28;45309;-77
2022/06/15 02:49:51;;;;;;;;;5.67;5.67;;;;;26.69;41.47;101228.06;5049908;28;45631;-77
2022/06/15 02:52:21;;;;;;;;;5.33;5.33;;;;;26.70;41.46;101237.91;5047846;28;45571;-77
2022/06/15 02:54:52;;;;;;;;;5.00;5.00;;;;;26.72;41.69;101239.66;5051037;28;45822;-77
2022/06/15 02:57:20;;;;;;;;;5.00;5.00;;;;;26.72;41.02;101240.47;5053701;28;45377;-77
2022/06/15 02:59:46;;;;;;;;;8.33;5.67;;;;;26.72;41.53;101243.19;5047600;28;46437;-77
2022/06/15 03:02:14;;;;;;;;;5.33;5.33;;;;;26.72;41.45;101243.19;5054492;28;45553;-77
2022/06/15 03:04:44;;;;;;;;;6.00;6.00;;;;;26.72;41.32;101245.09;5049018;28;45590;-77
2022/06/15 03:07:11;;;;;;;;;6.33;6.33;;;;;26.72;41.35;101232.31;5044503;28;45517;-77
2022/06/15 03:09:37;;;;;;;;;7.67;6.67;;;;;26.73;40.92;101244.06;5050862;28;45567;-77
2022/06/15 03:12:03;;;;;;;;;6.67;6.67;;;;;26.73;40.96;101249.50;5051177;28;45559;-77
2022/06/15 03:14:29;;;;;;;;;5.67;5.67;;;;;26.72;41.49;101255.97;5051163;28;45740;-77
2022/06/15 03:16:54;;;;;;;;;5.33;5.33;;;;;26.70;41.32;101247.97;5049629;28;45560;-77
2022/06/15 03:19:19;;;;;;;;;5.00;5.00;;;;;26.70;41.54;101242.53;5048659;28;45912;-77
2022/06/15 03:21:45;;;;;;;;;6.00;6.00;;;;;26.72;41.55;101247.81;5053311;28;45530;-77
2022/06/15 03:24:10;;;;;;;;;5.00;5.00;;;;;26.70;41.47;101251.53;5039164;28;47955;-77
2022/06/15 03:26:35;;;;;;;;;6.00;5.00;;;;;26.71;41.03;101255.13;5057393;28;45542;-77
2022/06/15 03:29:01;;;;;;;;;6.00;6.00;;;;;26.70;41.26;101256.16;5049886;28;50408;-77
2022/06/15 03:31:27;;;;;;;;;7.00;6.00;;;;;26.70;41.25;101256.97;5051972;28;45506;-77
2022/06/15 03:33:53;;;;;;;;;6.00;6.00;;;;;26.71;41.09;101252.41;5048396;28;45439;-77
2022/06/15 03:36:19;;;;;;;;;5.00;5.00;;;;;26.70;41.57;101246.09;5048284;28;45353;-77
2022/06/15 03:38:44;;;;;;;;;5.67;5.67;;;;;26.70;41.18;101254.25;5052776;28;46308;-77
2022/06/15 03:41:09;;;;;;;;;5.00;5.00;;;;;26.70;41.25;101250.72;5054328;28;48042;-77
2022/06/15 03:43:35;;;;;;;;;5.33;5.33;;;;;26.68;40.98;101248.16;5047962;28;45325;-77
2022/06/15 03:46:00;;;;;;;;;6.00;6.00;;;;;26.66;40.98;101246.63;5050414;28;45559;-77
2022/06/15 03:48:25;;;;;;;;;3.00;3.00;;;;;26.66;40.95;101247.50;5040991;28;46346;-77
2022/06/15 03:50:51;;;;;;;;;5.67;5.00;;;;;26.66;41.65;101252.09;5052690;28;46043;-77
2022/06/15 03:53:16;;;;;;;;;5.67;5.67;;;;;26.65;41.33;101248.50;5054869;28;45381;-77
2022/06/15 03:55:43;;;;;;;;;7.00;5.67;;;;;26.65;41.52;101250.38;5051689;28;52147;-77
2022/06/15 03:58:12;;;;;;;;;5.00;5.00;;;;;26.66;40.96;101247.50;5048035;28;45489;-77
2022/06/15 04:00:38;;;;;;;;;6.33;6.33;;;;;26.65;41.69;101245.78;5049492;28;45344;-77
2022/06/15 04:03:03;;;;;;;;;7.00;7.00;;;;;26.66;41.25;101246.63;5052546;28;45547;-77
2022/06/15 04:05:36;;;;;;;;;5.33;5.33;;;;;26.64;40.85;101246.81;5048529;28;45693;-77
2022/06/15 04:10:47;;;;;;;;;6.00;5.33;;;;;26.60;41.19;101248.19;5052474;28;45408;-78
2022/06/15 04:13:14;;;;;;;;;5.00;5.00;;;;;26.64;41.24;101254.16;5048932;28;45452;-77
2022/06/15 04:15:39;;;;;;;;;4.67;4.67;;;;;26.63;41.29;101256.00;5049472;28;52101;-78
2022/06/15 04:18:05;;;;;;;;;5.00;5.00;;;;;26.63;41.16;101247.84;5049831;28;45603;-77
2022/06/15 04:20:33;;;;;;;;;5.67;5.67;;;;;26.64;41.57;101254.16;5047656;28;51975;-77
2022/06/15 04:23:10;;;;;;;;;5.00;5.00;;;;;26.63;41.04;101252.44;5056550;28;45454;-77
2022/06/15 04:25:51;;;;;;;;;5.67;5.67;;;;;26.64;41.55;101252.25;5053125;28;45495;-78
2022/06/15 04:28:18;;;;;;;;;5.00;5.00;;;;;26.63;41.46;101252.44;5045263;28;47327;-77
2022/06/15 04:30:43;;;;;;;;;6.67;6.67;;;;;26.63;41.58;101249.69;5047268;28;45772;-78
2022/06/15 04:33:12;;;;;;;;;4.33;4.33;;;;;26.62;41.04;101257.03;5049012;28;45532;-77
2022/06/15 04:35:37;;;;;;;;;6.00;6.00;;;;;26.63;41.47;101252.44;5051303;28;45850;-77
2022/06/15 04:38:03;;;;;;;;;5.67;5.67;;;;;26.64;41.24;101256.88;5053150;28;45974;-77
2022/06/15 04:40:30;;;;;;;;;6.33;6.33;;;;;26.65;41.11;101258.56;5052441;28;45655;-77
2022/06/15 04:42:56;;;;;;;;;4.00;4.00;;;;;26.61;41.50;101246.31;5046747;28;45529;-77
2022/06/15 04:45:21;;;;;;;;;5.00;5.00;;;;;26.65;41.39;101253.13;5046599;28;45751;-77
2022/06/15 04:47:48;;;;;;;;;6.00;6.00;;;;;26.65;40.84;101256.66;5051451;28;45581;-77
2022/06/15 04:50:14;;;;;;;;;9.33;6.33;;;;;26.66;41.02;101258.38;5048845;28;45463;-78
2022/06/15 04:52:44;;;;;;;;;4.33;4.33;;;;;26.66;41.20;101269.28;5046243;28;45475;-78
2022/06/15 04:55:12;;;;;;;;;5.00;5.00;;;;;26.66;41.27;101261.13;5047483;28;45530;-78
2022/06/15 04:57:37;;;;;;;;;3.67;3.67;;;;;26.66;40.85;101258.38;5053429;28;46214;-78
2022/06/15 05:00:11;;;;;;;;;5.00;5.00;;;;;26.66;41.59;101265.69;5048410;28;45833;-77
2022/06/15 05:02:36;;;;;;;;;5.00;5.00;;;;;26.64;40.89;101265.88;5054617;28;45784;-78
2022/06/15 05:05:02;;;;;;;;;5.00;5.00;;;;;26.66;41.35;101268.41;5046983;28;45610;-78
2022/06/15 05:07:28;;;;;;;;;6.00;6.00;;;;;26.64;40.64;101268.59;5049027;28;46583;-78
2022/06/15 05:09:53;;;;;;;;;6.33;6.33;;;;;26.61;40.84;101277.13;5048576;28;45740;-78
2022/06/15 05:12:19;;;;;;;;;5.33;5.33;;;;;26.51;39.50;101280.03;5052659;28;45783;-78
2022/06/15 05:14:48;;;;;;;;;7.00;7.00;;;;;26.37;39.24;101280.78;5046513;28;47131;-77
2022/06/15 05:17:19;;;;;;;;;7.00;6.00;;;;;26.23;39.32;101276.88;5057388;28;46347;-77
2022/06/15 05:19:44;;;;;;;;;7.33;7.33;;;;;26.08;39.68;101284.91;5048387;28;46397;-77
2022/06/15 05:22:10;;;;;;;;;8.00;7.00;;;;;25.96;39.54;101281.69;5053992;28;50463;-76
2022/06/15 05:24:36;;;;;;;;;7.00;6.00;;;;;25.84;39.62;101271.16;5052612;28;45458;-77
2022/06/15 05:27:02;;;;;;;;;7.33;7.33;;;;;25.75;39.97;101270.31;5054456;28;46352;-77
2022/06/15 05:29:28;;;;;;;;;8.00;8.00;;;;;25.68;40.16;101280.19;5057483;28;45367;-77
2022/06/15 05:31:53;;;;;;;;;7.00;7.00;;;;;25.60;40.17;101277.47;5049534;28;45547;-77
2022/06/15 05:34:19;;;;;;;;;6.00;5.00;;;;;25.57;41.04;101284.06;5058348;28;45504;-77
2022/06/15 05:36:45;;;;;;;;;7.33;7.33;;;;;25.59;40.35;101284.75;5054718;28;46287;-77
2022/06/15 05:39:10;;;;;;;;;4.67;4.67;;;;;25.60;40.78;101291.03;5054339;28;52486;-77
2022/06/15 05:41:35;;;;;;;;;8.00;7.00;;;;;25.58;40.44;101287.66;5055155;28;45511;-77
2022/06/15 05:44:03;;;;;;;;;5.33;5.33;;;;;25.57;39.80;101288.66;5064743;28;45477;-77
2022/06/15 05:46:30;;;;;;;;;7.00;7.00;;;;;25.57;40.46;101283.22;5048087;28;46265;-77
2022/06/15 05:49:01;;;;;;;;;8.67;7.67;;;;;25.53;40.23;101285.41;5044718;28;46107;-77
2022/06/15 05:51:27;;;;;;;;;6.67;6.67;;;;;25.50;40.60;101275.72;5054517;28;45456;-77
2022/06/15 05:53:53;;;;;;;;;10.00;9.00;;;;;25.46;40.43;101274.34;5055557;28;45738;-77
2022/06/15 05:56:19;;;;;;;;;8.67;8.00;;;;;25.43;40.04;101277.44;5058614;28;47284;-77
2022/06/15 05:58:45;;;;;;;;;7.33;7.33;;;;;25.43;40.78;101272.00;5052765;28;46010;-77
2022/06/15 06:01:17;;;;;;;;;6.00;6.00;;;;;25.44;40.78;101270.97;5050334;28;45479;-78
2022/06/15 06:03:42;;;;;;;;;9.67;7.67;;;;;25.48;41.01;101271.47;5050933;28;45516;-76
2022/06/15 06:06:09;;;;;;;;;8.67;8.67;;;;;25.53;40.51;101280.81;5053339;28;45419;-76
2022/06/15 06:08:34;;;;;;;;;6.00;6.00;;;;;25.60;40.02;101275.59;5053680;28;45511;-76
2022/06/15 06:11:00;;;;;;;;;6.33;6.33;;;;;25.70;40.09;101263.72;5052976;28;45458;-76
2022/06/15 06:13:25;;;;;;;;;7.00;7.00;;;;;25.75;39.64;101270.31;5047747;28;45491;-76
2022/06/15 06:15:52;;;;;;;;;10.00;8.67;;;;;25.83;39.68;101274.06;5053026;28;45382;-76
2022/06/15 06:18:17;;;;;;;;;8.00;8.00;;;;;25.87;39.72;101270.81;5054454;28;45340;-76
2022/06/15 06:20:42;;;;;;;;;6.00;6.00;;;;;25.94;39.42;101275.59;5048355;28;45369;-76
2022/06/15 06:23:08;;;;;;;;;8.33;6.33;;;;;25.97;39.75;101273.34;5051401;28;45369;-75
2022/06/15 06:25:33;;;;;;;;;6.67;6.67;;;;;26.02;39.56;101270.97;5053794;28;47144;-75
2022/06/15 06:27:58;;;;;;;;;9.33;9.33;;;;;26.04;39.36;101265.34;5051721;28;45760;-77
2022/06/15 06:30:24;;;;;;;;;9.33;9.33;;;;;26.06;39.08;101260.59;5051470;28;45715;-76
2022/06/15 06:32:50;;;;;;;;;10.33;9.00;;;;;26.09;39.13;101256.66;5048556;28;45532;-76
2022/06/15 06:35:15;;;;;;;;;9.67;9.00;;;;;26.11;39.33;101265.53;5057824;28;47095;-76
2022/06/15 06:37:41;;;;;;;;;7.33;7.33;;;;;26.09;39.53;101271.13;5055679;28;45545;-75
2022/06/15 06:40:07;;;;;;;;;8.33;8.33;;;;;26.09;39.35;101270.25;5057432;28;45825;-77
2022/06/15 06:42:32;;;;;;;;;7.67;7.67;;;;;26.09;39.39;101268.41;5052182;28;45572;-77
2022/06/15 06:44:57;;;;;;;;;7.00;7.00;;;;;26.08;39.25;101261.28;5057743;28;46330;-77
2022/06/15 06:47:22;;;;;;;;;10.67;9.00;;;;;26.10;39.60;101270.09;5053905;28;47054;-77
2022/06/15 06:49:48;;;;;;;;;9.33;9.33;;;;;26.13;39.46;101277.91;5053530;28;46663;-76
2022/06/15 06:52:13;;;;;;;;;11.00;9.67;;;;;26.17;39.27;101267.53;5048349;28;45563;-74
2022/06/15 06:54:38;;;;;;;;;9.00;8.33;;;;;26.21;39.27;101277.06;5051604;28;47278;-74
2022/06/15 06:57:04;;;;;;;;;12.33;10.67;;;;;26.24;39.46;101278.56;5052217;28;45495;-75
2022/06/15 06:59:29;;;;;;;;;8.67;8.67;;;;;26.27;39.23;101280.97;5051265;28;45519;-75
2022/06/15 07:01:55;;;;;;;;;9.67;7.67;;;;;26.30;39.50;101281.47;5050083;28;46061;-75
2022/06/15 07:04:20;;;;;;;;;8.67;8.67;;;;;26.35;39.63;101283.66;5051354;28;45510;-75
2022/06/15 07:06:46;;;;;;;;;8.00;7.33;;;;;26.37;39.10;101270.75;5050950;28;45326;-75
2022/06/15 07:09:13;;;;;;;;;11.00;9.00;;;;;26.41;39.23;101277.50;5054233;28;45411;-76
2022/06/15 07:11:41;;;;;;;;;8.33;8.33;;;;;26.42;39.35;101272.94;5061066;28;45426;-75
2022/06/15 07:14:07;;;;;;;;;7.00;7.00;;;;;26.45;39.02;101278.03;5058220;28;47101;-75
2022/06/15 07:16:32;;;;;;;;;8.33;8.33;;;;;26.50;38.95;101274.78;5054704;28;45523;-75
2022/06/15 07:18:57;;;;;;;;;7.33;7.00;;;;;26.52;39.53;101273.56;5054688;28;45646;-76
2022/06/15 07:21:26;;;;;;;;;8.33;8.33;;;;;26.56;39.30;101274.06;5052174;28;45523;-75
2022/06/15 07:23:55;;;;;;;;;6.00;6.00;;;;;26.60;39.08;101274.56;5047935;28;46680;-74
2022/06/15 07:26:33;;;;;;;;;10.67;9.33;;;;;26.62;38.59;101276.09;5057632;28;45592;-73
2022/06/15 07:28:59;;;;;;;;;6.67;6.67;;;;;26.65;38.95;101275.72;5055709;28;45572;-75
2022/06/15 07:31:28;;;;;;;;;11.33;10.67;;;;;26.69;39.07;101282.50;5045699;28;45494;-76
2022/06/15 07:33:54;;;;;;;;;8.00;8.00;;;;;26.71;39.34;101285.06;5050204;28;45432;-76
2022/06/15 07:36:20;;;;;;;;;9.00;9.00;;;;;26.73;38.80;101285.72;5048333;28;45456;-76
2022/06/15 07:38:45;;;;;;;;;9.00;9.00;;;;;26.76;38.61;101281.81;5052410;28;45625;-76
2022/06/15 07:41:11;;;;;;;;;10.33;8.00;;;;;26.79;38.62;101284.19;5050245;28;45495;-76
2022/06/15 07:43:39;;;;;;;;;11.33;10.00;;;;;26.83;38.95;101288.25;5052170;28;47110;-76
2022/06/15 07:46:05;;;;;;;;;6.33;6.33;;;;;26.84;39.31;101281.75;5043429;28;45482;-74
2022/06/15 07:51:32;;;;;;;;;7.00;7.00;;;;;26.90;39.34;101285.66;5051580;28;45829;-74
2022/06/15 07:53:58;;;;;;;;;9.00;9.00;;;;;26.91;38.87;101285.50;5037884;28;45531;-74
2022/06/15 07:56:24;;;;;;;;;12.00;11.00;;;;;26.93;39.37;101288.03;5042532;28;45624;-74
2022/06/15 07:58:50;;;;;;;;;14.00;9.33;;;;;26.93;39.22;101285.31;5049181;28;45656;-74
2022/06/15 08:01:15;;;;;;;;;9.33;8.00;;;;;26.93;39.26;101286.19;5047104;28;45459;-74
2022/06/15 08:03:40;;;;;;;;;9.00;8.33;;;;;26.92;39.36;101284.44;5047509;28;45653;-74
2022/06/15 08:06:06;;;;;;;;;8.00;8.00;;;;;26.91;39.61;101274.59;5053503;28;45478;-74
2022/06/15 08:08:31;;;;;;;;;9.67;9.67;;;;;26.94;39.02;101276.16;5036926;28;45322;-74
2022/06/15 08:10:57;;;;;;;;;11.33;10.33;;;;;26.95;39.17;101275.09;5052916;28;45542;-74
2022/06/15 08:13:22;;;;;;;;;8.00;8.00;;;;;26.96;39.56;101272.22;5041199;28;45470;-74
2022/06/15 08:15:50;;;;;;;;;11.33;9.67;;;;;26.98;38.78;101271.19;5042063;28;46316;-74
2022/06/15 08:18:30;;;;;;;;;6.67;6.67;;;;;27.00;39.15;101280.00;5055923;28;45431;-75
2022/06/15 08:21:03;;;;;;;;;7.67;7.00;;;;;27.00;39.55;101275.41;5043543;28;45664;-74
2022/06/15 08:23:34;;;;;;;;;12.00;10.00;;;;;27.01;39.13;101266.22;5050469;28;47498;-72
2022/06/15 08:26:04;;;;;;;;;7.33;7.33;;;;;27.01;39.42;101271.66;5045301;28;45460;-72
2022/06/15 08:28:34;;;;;;;;;8.00;8.00;;;;;27.02;39.30;101273.34;5043797;28;45464;-75
2022/06/15 08:30:59;;;;;;;;;7.00;7.00;;;;;27.04;39.86;101274.03;5048071;28;46092;-73
2022/06/15 08:33:26;;;;;;;;;7.33;7.33;;;;;27.07;39.77;101270.97;5048846;28;45658;-73
2022/06/15 08:35:52;;;;;;;;;10.33;7.67;;;;;27.09;39.58;101270.75;5049612;28;45642;-73
2022/06/15 08:38:21;;;;;;;;;6.33;6.33;;;;;27.08;39.32;101266.34;5058075;28;45412;-73
2022/06/15 08:41:00;;;;;;;;;8.33;8.33;;;;;27.14;39.52;101272.97;5047483;28;45684;-73
2022/06/15 08:43:34;;;;;;;;;7.00;7.00;;;;;27.18;39.57;101282.47;5048156;28;46257;-73
2022/06/15 08:46:39;;;;;;;;;9.00;7.00;;;;;27.20;39.31;101278.53;5048578;28;45602;-73
2022/06/15 08:49:20;;;;;;;;;7.00;7.00;;;;;27.23;39.38;101267.25;5048772;28;46130;-73
2022/06/15 08:51:55;;;;;;;;;11.00;8.00;;;;;27.23;39.88;101263.69;5048307;28;45416;-74
2022/06/15 08:54:33;;;;;;;;;6.67;6.67;;;;;27.29;39.60;101270.28;5056951;28;45558;-75
2022/06/15 08:57:18;;;;;;;;;7.00;7.00;;;;;27.32;39.26;101270.78;5051848;28;45443;-74
2022/06/15 08:59:55;;;;;;;;;6.67;6.67;;;;;27.36;39.39;101276.72;5047408;28;45696;-75
2022/06/15 09:02:35;;;;;;;;;7.33;7.33;;;;;27.37;39.31;101270.22;5060656;28;45411;-75
2022/06/15 09:05:19;;;;;;;;;7.00;6.33;;;;;27.41;39.84;101273.44;5040641;28;45539;-75
2022/06/15 09:07:51;;;;;;;;;6.67;5.67;;;;;27.39;39.42;101268.19;5045002;28;45554;-73
2022/06/15 09:10:41;;;;;;;;;6.33;6.33;;;;;27.41;39.88;101277.00;5053570;28;45634;-73
2022/06/15 09:13:20;;;;;;;;;6.33;6.33;;;;;27.40;39.13;101278.06;5054368;28;45611;-73
2022/06/15 09:16:10;;;;;;;;;7.33;6.00;;;;;27.43;39.13;101268.66;5048755;28;46369;-76
2022/06/15 09:18:55;;;;;;;;;7.00;7.00;;;;;27.39;39.39;101265.47;5052412;28;45574;-74
2022/06/15 09:21:29;;;;;;;;;5.00;5.00;;;;;27.43;39.38;101274.13;5046967;28;45381;-75
2022/06/15 09:24:08;;;;;;;;;9.33;6.67;;;;;27.44;39.60;101278.53;5046426;28;45541;-75
2022/06/15 09:26:36;;;;;;;;;6.67;5.00;;;;;27.46;39.04;101273.75;5051369;28;46524;-75
2022/06/15 09:29:17;;;;;;;;;5.00;5.00;;;;;27.47;39.62;101270.81;5048005;28;45511;-75
2022/06/15 09:31:51;;;;;;;;;5.00;5.00;;;;;27.51;39.83;101275.91;5041522;28;45584;-75
2022/06/15 09:34:27;;;;;;;;;8.67;6.67;;;;;27.51;39.68;101274.06;5044026;28;45421;-75
2022/06/15 09:36:56;;;;;;;;;5.33;5.33;;;;;27.53;39.67;101273.84;5053830;28;45517;-75
2022/06/15 09:39:23;;;;;;;;;6.00;6.00;;;;;27.55;39.73;101264.47;5059363;28;45446;-74
2022/06/15 09:42:07;;;;;;;;;5.67;5.67;;;;;27.55;39.54;101263.63;5050054;28;45557;-75
2022/06/15 09:44:50;;;;;;;;;5.00;5.00;;;;;27.54;39.75;101265.50;5059511;28;45447;-75
2022/06/15 09:47:43;;;;;;;;;5.67;5.67;;;;;27.56;39.12;101262.59;5055281;28;46037;-75
2022/06/15 09:50:22;;;;;;;;;8.33;6.67;;;;;27.58;39.59;101265.97;5055166;28;73056;-75
2022/06/15 09:52:48;;;;;;;;;9.33;9.33;;;;;27.58;39.48;101271.41;5047108;28;45459;-76
2022/06/15 09:55:41;;;;;;;;;7.33;7.33;;;;;27.58;39.47;101274.16;5047226;28;45449;-75
2022/06/15 09:58:10;;;;;;;;;6.67;6.67;;;;;27.58;39.48;101268.69;5042278;28;47495;-75
2022/06/15 10:00:37;;;;;;;;;6.33;6.00;;;;;27.59;39.02;101263.06;5039028;28;45441;-75
2022/06/15 10:03:16;;;;;;;;;6.00;6.00;;;;;27.61;38.88;101257.47;5062807;28;45491;-75
2022/06/15 10:05:44;;;;;;;;;5.33;5.33;;;;;27.63;39.04;101252.69;5048319;28;45720;-74
2022/06/15 10:08:14;;;;;;;;;6.00;6.00;;;;;27.65;39.31;101257.94;5056233;28;45534;-75
2022/06/15 10:10:43;;;;;;;;;5.00;5.00;;;;;27.67;39.39;101259.44;5048098;28;45522;-76
2022/06/15 10:13:15;;;;;;;;;5.67;5.67;;;;;27.69;39.51;101259.25;5048565;28;45594;-76
2022/06/15 10:15:40;;;;;;;;;4.67;4.67;;;;;27.70;39.39;101266.41;5050184;28;45546;-76
2022/06/15 10:18:24;;;;;;;;;5.00;5.00;;;;;27.72;39.29;101264.34;5035206;28;45353;-76
2022/06/15 10:20:58;;;;;;;;;5.67;5.67;;;;;27.74;39.70;101273.19;5056189;28;45449;-77
2022/06/15 10:23:50;;;;;;;;;6.67;6.67;;;;;27.74;39.90;101271.31;5053016;28;45427;-75
2022/06/15 10:26:43;;;;;;;;;4.67;4.67;;;;;27.78;39.58;101266.34;5035678;28;46125;-75
2022/06/15 10:29:14;;;;;;;;;4.67;4.67;;;;;27.83;39.32;101265.81;5058772;28;45360;-76
2022/06/15 10:31:42;;;;;;;;;5.00;5.00;;;;;27.86;39.84;101269.00;5051206;28;45510;-76
2022/06/15 10:34:32;;;;;;;;;6.00;4.33;;;;;27.91;40.10;101268.44;5056810;28;45723;-76
2022/06/15 10:37:04;;;;;;;;;5.67;5.67;;;;;27.95;39.61;101271.66;5056328;28;45474;-75
2022/06/15 10:39:32;;;;;;;;;7.00;5.33;;;;;28.00;40.02;101269.22;5047814;28;46591;-75
2022/06/15 10:42:04;;;;;;;;;5.33;5.00;;;;;28.01;39.96;101263.56;5052585;28;45756;-74
2022/06/15 10:44:30;;;;;;;;;5.67;5.67;;;;;28.06;39.46;101275.78;5047228;28;45453;-73
2022/06/15 10:47:04;;;;;;;;;6.00;6.00;;;;;28.06;39.06;101262.13;5043071;28;45561;-73
2022/06/15 10:49:33;;;;;;;;;6.33;4.33;;;;;28.05;39.36;101265.91;5046530;28;46409;-73
2022/06/15 10:51:59;;;;;;;;;7.33;6.00;;;;;28.02;39.10;101264.41;5041489;28;45514;-74
2022/06/15 11:02:06;;;;;;;;;8.00;7.00;;;;;27.98;38.70;101269.41;5042532;28;45689;-74
2022/06/15 11:03:14;;;;;;;;;5.67;5.67;;;;;27.86;38.76;101269.00;5037536;28;45922;-74
2022/06/15 11:05:39;;;;;;;;;9.00;7.00;;;;;27.86;38.79;101269.00;5041879;28;45657;-73
2022/06/15 11:08:14;;;;;;;;;6.00;6.00;;;;;27.84;38.72;101257.41;5036628;28;45811;-73
2022/06/15 11:10:44;;;;;;;;;5.67;5.67;;;;;27.84;39.39;101257.41;5036945;28;45538;-73
2022/06/15 11:13:35;;;;;;;;;7.00;7.00;;;;;27.83;39.46;101263.91;5038719;28;45484;-73
2022/06/15 11:19:19;;;;;;;;;7.33;6.00;;;;;27.77;39.27;101258.34;5040018;28;46389;-73
2022/06/15 11:22:00;;;;;;;;;7.67;7.00;;;;;27.75;39.48;101262.09;5042577;28;45491;-73
2022/06/15 11:24:48;;;;;;;;;6.00;6.00;;;;;27.74;39.45;101257.69;5037528;28;45561;-73
2022/06/15 11:27:42;;;;;;;;;5.67;5.67;;;;;27.74;39.73;101257.69;5037072;28;45309;-73
2022/06/15 11:30:28;;;;;;;;;6.00;6.00;;;;;27.73;39.15;101256.00;5041085;28;45552;-74
2022/06/15 11:33:01;;;;;;;;;6.33;5.00;;;;;27.71;39.27;101252.59;5045488;28;46109;-74
2022/06/15 11:35:39;;;;;;;;;6.00;6.00;;;;;27.71;39.69;101249.03;5050909;28;45648;-73
2022/06/15 11:38:16;;;;;;;;;5.67;5.67;;;;;27.71;39.23;101249.88;5048042;28;45634;-73
2022/06/15 11:41:10;;;;;;;;;6.00;6.00;;;;;27.71;39.38;101244.41;5042718;28;45484;-74
2022/06/15 11:43:43;;;;;;;;;5.00;5.00;;;;;27.70;39.81;101250.91;5045663;28;45545;-74
2022/06/15 11:46:32;;;;;;;;;5.00;5.00;;;;;27.70;39.71;101241.88;5034836;28;47026;-73
2022/06/15 11:49:19;;;;;;;;;7.00;7.00;;;;;27.70;39.06;101245.44;5037908;28;45516;-74
2022/06/15 11:52:22;;;;;;;;;6.33;6.33;;;;;27.69;39.44;101241.03;5035147;28;45667;-74
2022/06/15 11:55:08;;;;;;;;;6.33;6.33;;;;;27.69;39.68;101246.50;5034520;28;48136;-75